Last 48 Hours

Stanford Met Tower

Hourly Data | America/Los_Angeles
as of 5/4/26 7:04 AM PDT
Date & Time Temp (°F) RH (%) Dew Pt (°F) Wind Dir (°) Wind Spd (mph) Wind Gust (mph) Solar Rad (W/m2) Pressure (mb) NowCast AQI Value (AQI) NowCast AQI Status Latest Rain (In) Daily Rain (In) Daily Min Temp (°F) Daily Max Temp (°F)
5/4/26 - 0700 47.1 95 46.7 SW | 230 2.4 5.0 31 1,018.0 3 Good 0.00 0.00 46.2 52.0
5/4/26 - 0600 48.0 93 47.1 S | 186 3.6 6.3 0 1,017.4 3 Good 0.00 0.00 46.8 52.0
5/4/26 - 0500 48.2 95 47.9 S | 188 3.4 6.2 0 1,017.4 3 Good 0.00 0.00 46.8 52.0
5/4/26 - 0400 47.3 94 46.8 SE | 129 2.0 5.1 0 1,017.5 3 Good 0.00 0.00 46.8 52.0
5/4/26 - 0300 49.0 90 47.2 SE | 142 2.8 5.8 0 1,017.4 4 Good 0.00 0.00 47.2 52.0
5/4/26 - 0200 50.8 86 47.8 S | 190 2.5 6.3 0 1,017.4 4 Good 0.00 0.00 49.6 52.0
5/4/26 - 0100 52.1 82 47.8 WSW | 256 2.5 7.3 0 1,017.8 4 Good 0.00 0.00 50.8 64.2
5/4/26 - 0000 53.8 79 48.2 SW | 220 4.4 11.1 0 1,017.5 4 Good 0.00 0.00 53.0 64.2
5/3/26 - 2300 54.1 79 48.7 SW | 214 4.5 12.4 0 1,017.4 4 Good 0.00 0.00 53.5 64.2
5/3/26 - 2200 53.9 80 48.9 SW | 228 6.9 17.0 0 1,017.1 5 Good 0.00 0.00 53.6 64.2
5/3/26 - 2100 54.6 75 47.8 SW | 221 6.0 16.0 0 1,016.6 5 Good 0.00 0.00 53.6 64.2
5/3/26 - 2000 57.2 66 47.0 SW | 233 9.6 18.7 57 1,015.6 5 Good 0.00 0.00 53.6 64.2
5/3/26 - 1900 60.1 63 48.3 SW | 235 10.5 22.9 242 1,015.1 7 Good 0.00 0.00 53.6 64.2
5/3/26 - 1800 62.0 59 48.2 SW | 233 11.5 23.0 457 1,014.9 7 Good 0.00 0.00 53.6 64.2
5/3/26 - 1700 62.4 60 49.2 SW | 234 11.6 21.8 602 1,014.5 6 Good 0.00 0.00 53.6 64.2
5/3/26 - 1600 60.9 64 49.6 SW | 233 10.2 22.7 345 1,014.7 6 Good 0.00 0.00 53.6 64.2
5/3/26 - 1500 61.6 62 49.5 SW | 229 9.4 19.8 327 1,014.8 5 Good 0.00 0.00 53.6 64.2
5/3/26 - 1400 61.8 63 50.3 SW | 235 9.5 21.1 631 1,014.4 4 Good 0.00 0.00 53.6 64.2
5/3/26 - 1300 61.0 62 48.8 SW | 232 9.6 17.3 431 1,015.1 3 Good 0.00 0.00 53.6 62.9
5/3/26 - 1200 61.4 63 49.6 WSW | 237 7.3 17.1 550 1,015.1 2 Good 0.00 0.00 53.6 62.9
5/3/26 - 1100 58.9 72 50.7 SW | 224 5.7 13.7 614 1,015.1 2 Good 0.00 0.00 53.6 61.6
5/3/26 - 1000 55.5 85 52.1 SW | 216 3.3 10.2 204 1,015.8 4 Good 0.00 0.00 53.6 57.2
5/3/26 - 0900 55.0 85 51.5 SSW | 197 2.6 7.0 170 1,015.6 5 Good 0.00 0.00 53.6 57.2
5/3/26 - 0800 54.4 84 50.5 SSW | 209 2.8 8.8 43 1,015.4 7 Good 0.00 0.00 53.6 55.2
5/3/26 - 0700 53.8 85 50.4 SE | 134 1.2 3.9 4 1,014.6 9 Good 0.00 0.00 53.6 55.2
5/3/26 - 0600 53.9 84 50.2 WSW | 239 1.4 3.4 0 1,014.0 11 Good 0.00 0.00 53.6 55.2
5/3/26 - 0500 54.5 80 49.4 WNW | 292 0.6 3.0 0 1,013.9 11 Good 0.00 0.00 54.1 55.2
5/3/26 - 0400 54.5 79 49.3 NW | 305 0.6 2.8 0 1,014.0 12 Good 0.00 0.00 54.3 55.0
5/3/26 - 0300 54.6 79 49.0 W | 266 1.2 5.0 0 1,014.0 12 Good 0.00 0.00 54.3 55.0
5/3/26 - 0200 54.5 78 48.8 WSW | 238 2.6 6.4 0 1,014.2 12 Good 0.00 0.00 54.3 55.0
5/3/26 - 0100 54.6 78 48.8 W | 264 3.1 6.3 0 1,014.7 13 Good 0.00 0.00 53.6 64.1
5/3/26 - 0000 54.7 77 48.6 WNW | 303 3.5 7.0 0 1,014.8 14 Good 0.00 0.00 53.6 64.1
5/2/26 - 2300 54.9 77 48.9 NW | 315 3.3 7.9 0 1,015.0 14 Good 0.00 0.00 53.6 64.1
5/2/26 - 2200 55.1 75 48.5 WNW | 303 5.0 10.7 0 1,015.2 18 Good 0.00 0.00 53.6 64.1
5/2/26 - 2100 55.9 74 48.8 NW | 319 4.6 9.2 0 1,014.7 19 Good 0.00 0.00 53.6 64.1
5/2/26 - 2000 57.4 71 49.0 NW | 322 5.3 11.0 23 1,014.0 21 Good 0.00 0.00 53.6 64.1
5/2/26 - 1900 59.6 70 50.7 W | 264 6.0 11.3 137 1,013.4 21 Good 0.00 0.00 53.6 64.1
5/2/26 - 1800 62.0 69 52.5 WSW | 240 6.9 11.7 362 1,013.3 22 Good 0.00 0.00 53.6 64.1
5/2/26 - 1700 62.9 67 52.7 SW | 226 6.7 12.1 394 1,013.3 21 Good 0.00 0.00 53.6 64.1
5/2/26 - 1600 62.8 67 52.9 SW | 233 7.5 13.0 475 1,013.8 19 Good 0.00 0.00 53.6 63.8
5/2/26 - 1500 62.4 69 53.0 WSW | 238 6.6 13.3 437 1,014.6 14 Good 0.00 0.00 53.6 63.4
5/2/26 - 1400 61.5 70 52.6 SW | 235 7.5 14.0 580 1,015.0 12 Good 0.00 0.00 53.6 63.0
5/2/26 - 1300 59.5 74 52.2 WSW | 241 10.5 18.7 537 1,015.9 11 Good 0.00 0.00 53.6 60.4
5/2/26 - 1200 59.2 75 52.3 SW | 226 8.4 16.3 620 1,016.2 10 Good 0.00 0.00 53.6 60.4
5/2/26 - 1100 58.5 76 51.8 SSW | 213 7.3 14.1 477 1,016.4 11 Good 0.00 0.00 53.6 59.3
5/2/26 - 1000 57.1 79 51.5 SW | 218 6.6 12.9 291 1,016.6 14 Good 0.00 0.00 53.6 58.6
5/2/26 - 0900 55.4 82 50.9 SW | 226 6.0 12.2 101 1,016.7 15 Good 0.00 0.00 53.6 56.3
5/2/26 - 0800 54.6 83 50.6 SW | 214 5.1 10.3 39 1,016.2 13 Good 0.00 0.00 53.6 55.3
5/2/26 - 0700 53.9 85 50.5 SSW | 209 5.1 9.7 8 1,015.9 12 Good 0.00 0.00 53.6 55.3
Max 62.9 95 53.0 - 11.6 23.0 631 1,018.0 22 - 0.00 0.00 54.3 64.2
Avg 56.3 76 49.7 - 5.4 11.6 188 1,015.5 10 - 0.00 - - -
Min 47.1 59 46.7 - 0.6 2.8 0 1,013.3 2 - 0.00 0.00 46.2 52.0
Total - - - - - - - - - - 0.00 - - -